Hovedside
METAR-TAF:

METAR-TAF

Lufthavner :

Kullu / Manali, India

breddegrad: 31-52-36N, lengdegrad: 77-09-16E, høyde over havet: 1089 m

Gjeldene værobservasjon

Denne rapporten ble laget for 15 timer og 39 minutter siden, klokken 06:00 UTC
Flau vind
Temperatur 32°C
Luftfuktighet 28%
Trykk 1007 hPa
Sikt: 6000 m

METAR: VIBR 140600Z 00000KT 6000 NSC 32/11 Q1007

Tid: 03:09 (21:39 UTC)

Varsel

Denne rapporten ble laget for 16 timer og 39 minutter siden, klokken 05:00 UTC
Varsel gyldig fra 14. klokken 06 UTC til 14. klokken 15 UTC
Vind 2 kt fra skiftende retning
Sikt: 5000 m
dis
Blir
fra 14. klokken 08 UTC til 14. klokken 10 UTC
Vind 5 kt fra Vest-sørvest
Sikt: 6000 m
Få skyer i en høyde av 8000 ft

TAF: VIBR 140500Z 1406/1415 VRB02KT 5000 HZ NSC BECMG 1408/1410 25005KT 6000 FEW080

Værobservasjoner og værvarsel for over 4000 flyplasser (METAR- og TAF-rapporter).

Tilgjengelige stasjoner er representert av de røde og gule prikkene på kartet.

Hold musepekeren over prikken for å se navnet på stasjonen.

Klikk så for å se værobservasjoner og -varsler.

For å forandre kartet kan du klikke på den grønne knappen med svart kryss for å zoome inn, på den grønne knappen med strek for å zoome ut, eller på de grønne pilene for å se tilstøtende kart.


METAR-TAF: